createdAt,value
2022-12-29T00:03:09.831Z,3.10
2022-12-29T00:08:41.162Z,3.50
2022-12-29T00:14:26.022Z,1.98
2022-12-29T00:20:06.322Z,2.10
2022-12-29T00:25:47.230Z,1.85
2022-12-29T00:31:31.314Z,1.92
2022-12-29T00:36:54.161Z,2.20
2022-12-29T00:42:34.220Z,2.17
2022-12-29T00:47:55.948Z,1.85
2022-12-29T00:53:17.674Z,1.90
2022-12-29T00:58:39.403Z,1.55
2022-12-29T01:04:04.137Z,2.15
2022-12-29T01:09:45.108Z,1.60
2022-12-29T01:15:08.947Z,2.00
2022-12-29T01:20:30.856Z,1.80
2022-12-29T01:25:52.588Z,1.60
2022-12-29T01:31:16.312Z,1.58
2022-12-29T01:36:38.054Z,1.50
2022-12-29T01:41:59.772Z,1.80
2022-12-29T01:47:45.584Z,1.67
2022-12-29T01:53:18.460Z,1.35
2022-12-29T01:58:43.909Z,1.30
2022-12-29T02:04:05.684Z,1.38
2022-12-29T02:09:27.422Z,1.85
2022-12-29T02:14:52.790Z,1.60
2022-12-29T02:20:38.357Z,1.30
2022-12-29T02:26:33.364Z,1.20
2022-12-29T02:32:13.956Z,1.15
2022-12-29T02:37:38.363Z,1.35
2022-12-29T02:43:13.311Z,1.40
2022-12-29T02:48:51.655Z,1.00
2022-12-29T02:54:31.992Z,1.40
2022-12-29T03:00:09.527Z,1.30
2022-12-29T03:05:52.728Z,1.13
2022-12-29T03:11:33.715Z,1.23
2022-12-29T03:17:05.067Z,1.40
2022-12-29T03:22:32.354Z,1.30
2022-12-29T03:27:58.198Z,1.20
2022-12-29T03:33:26.188Z,1.30
2022-12-29T03:38:54.484Z,1.75
2022-12-29T03:44:16.153Z,1.30
2022-12-29T03:49:39.068Z,1.00
2022-12-29T03:55:00.805Z,1.33
2022-12-29T04:00:22.537Z,1.10
2022-12-29T04:05:44.227Z,1.30
2022-12-29T04:11:06.196Z,1.35
2022-12-29T04:16:27.903Z,1.00
2022-12-29T04:21:49.585Z,1.00
2022-12-29T04:27:11.265Z,1.25
2022-12-29T04:32:33.009Z,1.10
2022-12-29T04:37:54.741Z,1.33
2022-12-29T04:43:18.235Z,1.25
2022-12-29T04:48:40.023Z,1.33
2022-12-29T04:54:01.855Z,1.40
2022-12-29T04:59:23.637Z,1.63
2022-12-29T05:04:45.690Z,1.45
2022-12-29T05:10:08.227Z,1.15
2022-12-29T05:15:29.933Z,0.90
2022-12-29T05:20:51.700Z,1.23
2022-12-29T05:26:13.404Z,1.10
2022-12-29T05:31:36.602Z,1.52
2022-12-29T05:36:58.435Z,1.30
2022-12-29T05:42:20.158Z,1.20
2022-12-29T05:47:41.887Z,1.50
2022-12-29T05:53:03.892Z,1.20
2022-12-29T05:58:25.601Z,1.10
2022-12-29T06:03:48.508Z,1.38
2022-12-29T06:09:11.871Z,1.60
2022-12-29T06:14:33.634Z,1.20
2022-12-29T06:19:55.722Z,1.20
2022-12-29T06:25:17.728Z,1.30
2022-12-29T06:30:39.493Z,1.35
2022-12-29T06:36:01.232Z,1.30
2022-12-29T06:41:28.381Z,1.23
2022-12-29T06:46:53.551Z,1.02
2022-12-29T06:52:15.245Z,1.30
2022-12-29T06:57:36.971Z,1.38
2022-12-29T07:03:01.574Z,1.00
2022-12-29T07:08:23.381Z,1.08
2022-12-29T07:13:45.120Z,1.23
2022-12-29T07:19:06.916Z,1.20
2022-12-29T07:24:28.943Z,1.13
2022-12-29T07:29:50.641Z,1.27
2022-12-29T07:35:12.383Z,1.60
2022-12-29T07:40:34.145Z,1.27
2022-12-29T07:45:55.889Z,1.40
2022-12-29T07:51:17.603Z,1.55
2022-12-29T07:56:39.388Z,1.60
2022-12-29T08:02:01.745Z,1.50
2022-12-29T08:07:23.527Z,1.40
2022-12-29T08:12:45.350Z,2.28
2022-12-29T08:18:07.166Z,1.33
2022-12-29T08:23:28.831Z,1.40
2022-12-29T08:28:53.364Z,1.38
2022-12-29T08:34:15.055Z,1.60
2022-12-29T08:39:36.796Z,1.80
2022-12-29T08:44:59.838Z,1.70
2022-12-29T08:50:21.563Z,1.95
2022-12-29T08:55:43.241Z,1.70
2022-12-29T09:01:05.279Z,1.80
2022-12-29T09:06:27.034Z,1.35
2022-12-29T09:11:48.842Z,1.77
2022-12-29T09:17:29.585Z,1.50
2022-12-29T09:22:51.297Z,1.50
2022-12-29T09:28:13.000Z,1.70
2022-12-29T09:33:35.299Z,1.40
2022-12-29T09:38:57.015Z,1.20
2022-12-29T09:44:46.265Z,2.10
2022-12-29T09:50:26.545Z,1.50
2022-12-29T09:55:51.837Z,1.60
2022-12-29T10:01:27.438Z,1.38
2022-12-29T10:07:29.311Z,1.50
2022-12-29T10:13:10.356Z,1.58
2022-12-29T10:18:50.010Z,1.65
2022-12-29T10:24:13.414Z,1.52
2022-12-29T10:29:41.777Z,1.45
2022-12-29T10:35:15.239Z,1.60
2022-12-29T10:40:59.060Z,1.75
2022-12-29T10:46:24.149Z,1.52
2022-12-29T10:51:48.187Z,1.63
2022-12-29T10:57:25.317Z,1.60
2022-12-29T11:03:07.814Z,1.60
2022-12-29T11:08:35.866Z,1.52
2022-12-29T11:14:18.655Z,1.35
2022-12-29T11:19:41.283Z,1.27
2022-12-29T11:25:13.168Z,1.58
2022-12-29T11:30:34.837Z,1.60
2022-12-29T11:36:05.129Z,1.75
2022-12-29T11:41:32.490Z,1.73
2022-12-29T11:46:55.095Z,1.45
2022-12-29T11:52:17.430Z,1.83
2022-12-29T11:57:43.067Z,1.75
2022-12-29T12:03:11.605Z,1.58
2022-12-29T12:08:47.295Z,1.50
2022-12-29T12:14:44.538Z,1.70
2022-12-29T12:20:06.598Z,1.70
2022-12-29T12:25:38.643Z,1.27
2022-12-29T12:31:05.735Z,1.33
2022-12-29T12:36:44.920Z,1.30
2022-12-29T12:42:25.187Z,1.77
2022-12-29T12:48:11.728Z,1.25
2022-12-29T12:53:59.660Z,1.50
2022-12-29T12:59:34.188Z,2.00
2022-12-29T13:05:30.074Z,1.60
2022-12-29T13:10:56.595Z,1.63
2022-12-29T13:16:27.685Z,1.67
2022-12-29T13:22:06.984Z,1.70
2022-12-29T13:27:35.234Z,1.60
2022-12-29T13:33:33.187Z,1.42
2022-12-29T13:39:12.858Z,1.40
2022-12-29T13:44:55.742Z,1.55
2022-12-29T13:50:24.123Z,1.70
2022-12-29T13:56:09.916Z,1.23
2022-12-29T14:01:42.735Z,1.50
2022-12-29T14:07:18.162Z,1.50
2022-12-29T14:12:44.552Z,1.67
2022-12-29T14:18:15.220Z,1.77
2022-12-29T14:23:45.874Z,1.70
2022-12-29T14:29:37.394Z,1.52
2022-12-29T14:35:02.003Z,1.50
2022-12-29T14:40:25.984Z,1.75
2022-12-29T14:45:56.359Z,2.38
2022-12-29T14:51:30.174Z,2.00
2022-12-29T14:56:53.562Z,1.92
2022-12-29T15:02:23.127Z,2.17
2022-12-29T15:07:45.105Z,1.98
2022-12-29T15:13:16.400Z,1.70
2022-12-29T15:18:43.423Z,1.80
2022-12-29T15:24:05.482Z,1.52
2022-12-29T15:29:41.998Z,1.50
2022-12-29T15:35:24.785Z,1.90
2022-12-29T15:40:47.311Z,1.88
2022-12-29T15:46:12.041Z,2.15
2022-12-29T15:51:40.546Z,2.03
2022-12-29T15:57:02.456Z,1.60
2022-12-29T16:02:26.238Z,1.50
2022-12-29T16:08:00.196Z,0.90
2022-12-29T16:13:39.656Z,1.00
2022-12-29T16:19:07.446Z,0.93
2022-12-29T16:24:33.364Z,0.90
2022-12-29T16:29:56.326Z,1.02
2022-12-29T16:35:23.760Z,3.15
2022-12-29T16:41:03.393Z,0.95
2022-12-29T16:46:30.167Z,0.93
2022-12-29T16:51:55.112Z,1.88
2022-12-29T16:57:23.213Z,1.45
2022-12-29T17:02:45.649Z,1.35
2022-12-29T17:08:40.889Z,1.33
2022-12-29T17:14:02.575Z,1.48
2022-12-29T17:19:33.185Z,1.65
2022-12-29T17:24:57.261Z,2.03
2022-12-29T17:30:24.264Z,2.35
2022-12-29T17:35:54.853Z,2.20
2022-12-29T17:41:17.115Z,3.58
2022-12-29T17:46:38.927Z,2.70
2022-12-29T17:52:00.737Z,2.58
2022-12-29T17:57:22.591Z,2.70
2022-12-29T18:02:44.618Z,4.00
2022-12-29T18:08:08.834Z,2.10
2022-12-29T18:13:43.602Z,4.25
2022-12-29T18:19:09.173Z,1.42
2022-12-29T18:24:30.850Z,1.40
2022-12-29T18:29:52.683Z,1.77
2022-12-29T18:35:25.791Z,1.40
2022-12-29T18:40:49.244Z,1.40
2022-12-29T18:46:12.133Z,1.40
2022-12-29T18:51:35.696Z,2.15
2022-12-29T18:56:58.287Z,1.38
2022-12-29T19:02:20.115Z,1.60
2022-12-29T19:07:41.915Z,1.27
2022-12-29T19:13:03.958Z,1.83
2022-12-29T19:18:45.350Z,2.10
2022-12-29T19:24:09.344Z,1.50
2022-12-29T19:29:31.158Z,1.35
2022-12-29T19:34:52.884Z,1.75
2022-12-29T19:40:18.459Z,1.48
2022-12-29T19:45:41.572Z,1.25
2022-12-29T19:51:08.669Z,1.50
2022-12-29T19:56:31.233Z,1.40
2022-12-29T20:01:53.139Z,1.30
2022-12-29T20:07:17.825Z,2.03
2022-12-29T20:12:39.796Z,2.63
2022-12-29T20:18:13.195Z,2.20
2022-12-29T20:23:39.229Z,2.03
2022-12-29T20:29:01.132Z,2.00
2022-12-29T20:34:23.040Z,1.35
2022-12-29T20:39:45.152Z,1.35
2022-12-29T20:45:07.000Z,1.90
2022-12-29T20:50:28.913Z,2.00
2022-12-29T20:55:50.988Z,1.30
2022-12-29T21:01:15.895Z,0.80
2022-12-29T21:06:37.910Z,1.00
2022-12-29T21:11:59.920Z,0.80
2022-12-29T21:17:21.590Z,1.60
2022-12-29T21:22:43.338Z,1.50
2022-12-29T21:28:12.190Z,1.40
2022-12-29T21:33:34.061Z,1.45
2022-12-29T21:38:56.485Z,1.35
2022-12-29T21:44:36.826Z,1.13
2022-12-29T21:49:58.521Z,1.50
2022-12-29T21:55:20.459Z,1.55
2022-12-29T22:01:00.642Z,0.80
2022-12-29T22:06:40.883Z,0.70
2022-12-29T22:12:20.987Z,0.90
2022-12-29T22:17:49.052Z,0.65
2022-12-29T22:23:10.962Z,0.88
2022-12-29T22:28:37.767Z,0.65
2022-12-29T22:34:01.796Z,0.60
2022-12-29T22:39:23.622Z,0.70
2022-12-29T22:44:45.341Z,0.80
2022-12-29T22:50:07.651Z,0.77
2022-12-29T22:55:29.441Z,0.57
2022-12-29T23:00:51.175Z,0.50
2022-12-29T23:06:14.665Z,0.52
2022-12-29T23:11:36.460Z,0.60
2022-12-29T23:16:58.157Z,0.80
2022-12-29T23:22:20.593Z,0.70
2022-12-29T23:27:42.324Z,0.98
2022-12-29T23:33:04.101Z,1.23
2022-12-29T23:38:26.007Z,0.85
2022-12-29T23:43:49.067Z,0.80
2022-12-29T23:49:11.015Z,0.82
2022-12-29T23:54:32.722Z,0.70
2022-12-29T23:59:54.410Z,0.75
